Time;durP1;ratioP1;P1;durP2;ratioP2;P2;SDS_P1;SDS_P2;PMS_P1;PMS_P2;Temp;Humidity;BMP_temperature;BMP_pressure;BME280_temperature;BME280_humidity;BME280_pressure;Samples;Min_cycle;Max_cycle;Signal;HPM_P1;HPM_P2
2023/11/05 00:00:55;;;;;;;;;;;;;;;6.65;100.00;97776.81;110669;1212;126699;-70
2023/11/05 00:03:21;;;;;;;;;;;;;;;6.66;100.00;97764.48;110860;1212;99034;-71
2023/11/05 00:05:47;;;;;;;;;;;;;;;6.66;100.00;97752.39;110852;1209;99028;-70
2023/11/05 00:08:12;;;;;;;;;;;;;;;6.66;100.00;97750.81;110760;1213;124695;-72
2023/11/05 00:10:38;;;;;;;;;;;;;;;6.67;100.00;97747.16;110800;1209;99021;-70
2023/11/05 00:13:03;;;;;;;;;;;;;;;6.69;100.00;97746.67;110570;1212;125092;-71
2023/11/05 00:15:28;;;;;;;;;;;;;;;6.71;100.00;97755.91;110838;1212;100910;-71
2023/11/05 00:17:54;;;;;;;;;;;;;;;6.71;100.00;97771.34;110806;1208;100209;-71
2023/11/05 00:20:19;;;;;;;;;;;;;;;6.73;100.00;97782.95;110693;1212;125331;-72
2023/11/05 00:22:44;;;;;;;;;;;;;;;6.73;100.00;97787.17;110793;1208;99020;-71
2023/11/05 00:25:09;;;;;;;;;;;;;;;6.74;100.00;97778.23;110745;1209;125314;-71
2023/11/05 00:27:36;;;;;;;;;;;;;;;6.75;100.00;97783.48;110846;1212;100488;-71
2023/11/05 00:30:02;;;;;;;;;;;;;;;6.77;100.00;97784.25;110687;1212;126331;-70
2023/11/05 00:32:27;;;;;;;;;;;;;;;6.77;100.00;97779.40;110718;1212;98045;-72
2023/11/05 00:34:52;;;;;;;;;;;;;;;6.79;100.00;97780.55;110920;1208;99078;-71
2023/11/05 00:37:17;;;;;;;;;;;;;;;6.80;100.00;97775.67;110709;1212;124807;-71
2023/11/05 00:39:43;;;;;;;;;;;;;;;6.79;100.00;97766.10;110813;1212;99117;-72
2023/11/05 00:42:08;;;;;;;;;;;;;;;6.80;100.00;97757.55;110763;1212;125054;-71
2023/11/05 00:44:33;;;;;;;;;;;;;;;6.80;100.00;97742.66;110845;1212;98948;-71
2023/11/05 00:46:58;;;;;;;;;;;;;;;6.82;100.00;97725.98;110819;1224;107835;-72
2023/11/05 00:49:23;;;;;;;;;;;;;;;6.84;100.00;97711.14;110682;1212;126752;-69
2023/11/05 00:51:49;;;;;;;;;;;;;;;6.84;100.00;97701.70;110970;1209;98951;-71
2023/11/05 00:54:14;;;;;;;;;;;;;;;6.84;100.00;97695.83;110752;1212;125439;-73
2023/11/05 00:56:39;;;;;;;;;;;;;;;6.84;100.00;97695.29;110846;1212;99697;-73
2023/11/05 00:59:04;;;;;;;;;;;;;;;6.82;100.00;97693.53;110882;1212;98924;-72
2023/11/05 01:01:29;;;;;;;;;;;;;;;6.81;100.00;97683.11;110699;1208;127154;-70
2023/11/05 01:03:54;;;;;;;;;;;;;;;6.80;100.00;97689.39;110857;1212;99287;-72
2023/11/05 01:06:20;;;;;;;;;;;;;;;6.79;100.00;97689.64;110795;1208;125500;-73
2023/11/05 01:08:45;;;;;;;;;;;;;;;6.79;100.00;97683.48;110840;1210;99047;-72
2023/11/05 01:11:11;;;;;;;;;;;;;;;6.79;100.00;97679.77;110879;1212;99479;-69
2023/11/05 01:13:36;;;;;;;;;;;;;;;6.78;100.00;97684.61;110750;1212;125133;-70
2023/11/05 01:16:01;;;;;;;;;;;;;;;6.78;100.00;97689.95;110762;1212;98902;-70
2023/11/05 01:18:26;;;;;;;;;;;;;;;6.78;100.00;97699.55;110733;1212;125601;-70
2023/11/05 01:20:51;;;;;;;;;;;;;;;6.76;100.00;97705.83;110842;1212;99128;-70
2023/11/05 01:23:17;;;;;;;;;;;;;;;6.76;100.00;97715.64;110861;1212;99062;-70
2023/11/05 01:25:42;;;;;;;;;;;;;;;6.76;100.00;97716.52;110845;1209;125387;-70
2023/11/05 01:28:07;;;;;;;;;;;;;;;6.75;100.00;97717.98;110827;1212;99573;-71
2023/11/05 01:30:32;;;;;;;;;;;;;;;6.75;100.00;97715.72;110720;1208;124954;-70
2023/11/05 01:32:57;;;;;;;;;;;;;;;6.75;100.00;97711.42;110715;1212;99040;-71
2023/11/05 01:35:23;;;;;;;;;;;;;;;6.76;100.00;97709.58;110828;1212;99555;-70
2023/11/05 01:37:49;;;;;;;;;;;;;;;6.76;100.00;97704.27;110738;1212;124867;-70
2023/11/05 01:40:14;;;;;;;;;;;;;;;6.76;100.00;97698.04;110853;1209;98962;-70
2023/11/05 01:42:39;;;;;;;;;;;;;;;6.77;100.00;97698.50;110765;1212;126246;-70
2023/11/05 01:45:05;;;;;;;;;;;;;;;6.78;100.00;97693.13;110866;1212;100088;-70
2023/11/05 01:47:30;;;;;;;;;;;;;;;6.78;100.00;97680.70;110715;1212;98974;-70
2023/11/05 01:49:55;;;;;;;;;;;;;;;6.79;100.00;97671.05;110663;1212;126062;-71
2023/11/05 01:52:21;;;;;;;;;;;;;;;6.81;100.00;97673.33;110847;1208;99094;-70
2023/11/05 01:54:47;;;;;;;;;;;;;;;6.82;100.00;97686.06;110819;1210;124945;-70
2023/11/05 01:57:12;;;;;;;;;;;;;;;6.83;100.00;97683.82;110778;1212;98955;-70
2023/11/05 01:59:38;;;;;;;;;;;;;;;6.84;100.00;97678.46;110882;1210;99003;-70
2023/11/05 02:02:03;;;;;;;;;;;;;;;6.84;100.00;97675.42;110780;1212;125552;-71
2023/11/05 02:04:28;;;;;;;;;;;;;;;6.85;100.00;97671.81;110743;1212;98945;-71
2023/11/05 02:06:54;;;;;;;;;;;;;;;6.86;100.00;97660.95;110679;1210;125390;-71
2023/11/05 02:09:19;;;;;;;;;;;;;;;6.85;100.00;97663.68;110846;1208;98963;-70
2023/11/05 02:11:44;;;;;;;;;;;;;;;6.85;100.00;97666.54;110894;1210;99014;-71
2023/11/05 02:14:13;;;;;;;;;;;;;;;6.84;100.00;97661.75;110710;1212;124875;-71
2023/11/05 02:16:39;;;;;;;;;;;;;;;6.86;100.00;97658.45;110672;1212;99648;-71
2023/11/05 02:19:04;;;;;;;;;;;;;;;6.87;100.00;97664.39;110691;1212;124747;-71
2023/11/05 02:21:32;;;;;;;;;;;;;;;6.88;100.00;97667.15;110846;1208;99321;-71
2023/11/05 02:23:57;;;;;;;;;;;;;;;6.89;100.00;97655.73;110822;1212;98987;-70
2023/11/05 02:26:23;;;;;;;;;;;;;;;6.91;100.00;97654.73;110737;1210;124565;-69
2023/11/05 02:28:48;;;;;;;;;;;;;;;6.92;100.00;97658.36;110940;1212;98992;-70
2023/11/05 02:31:13;;;;;;;;;;;;;;;6.94;100.00;97655.70;110718;1212;125453;-70
2023/11/05 02:33:42;;;;;;;;;;;;;;;6.96;100.00;97645.95;110870;1212;99013;-69
2023/11/05 02:36:08;;;;;;;;;;;;;;;6.99;100.00;97647.89;111354;1212;125287;-69
2023/11/05 02:38:33;;;;;;;;;;;;;;;7.00;100.00;97645.09;111479;1209;98968;-68
2023/11/05 02:40:58;;;;;;;;;;;;;;;7.03;100.00;97646.48;111540;1212;99068;-69
2023/11/05 02:43:23;;;;;;;;;;;;;;;7.06;100.00;97642.92;111387;1212;125060;-68
2023/11/05 02:45:48;;;;;;;;;;;;;;;7.09;100.00;97645.86;111587;1209;99040;-69
2023/11/05 02:48:13;;;;;;;;;;;;;;;7.12;100.00;97642.42;111395;1211;125121;-69
2023/11/05 02:50:39;;;;;;;;;;;;;;;7.15;100.00;97635.98;111500;1221;99059;-69
2023/11/05 02:53:04;;;;;;;;;;;;;;;7.17;100.00;97628.88;111458;1209;99015;-69
2023/11/05 02:55:29;;;;;;;;;;;;;;;7.20;100.00;97628.83;111307;1212;125266;-69
2023/11/05 02:57:54;;;;;;;;;;;;;;;7.23;100.00;97626.64;111503;1212;98934;-68
2023/11/05 03:00:20;;;;;;;;;;;;;;;7.25;100.00;97625.45;111356;1212;124993;-69
2023/11/05 03:02:45;;;;;;;;;;;;;;;7.27;100.00;97617.48;111433;1209;99063;-68
2023/11/05 03:05:10;;;;;;;;;;;;;;;7.28;100.00;97611.30;111419;1208;99100;-69
2023/11/05 03:07:35;;;;;;;;;;;;;;;7.31;100.00;97606.48;111279;1209;125333;-66
2023/11/05 03:10:01;;;;;;;;;;;;;;;7.32;100.00;97594.33;111405;1208;99092;-66
2023/11/05 03:12:26;;;;;;;;;;;;;;;7.34;100.00;97594.55;111294;1209;125299;-66
2023/11/05 03:14:51;;;;;;;;;;;;;;;7.34;100.00;97599.13;111479;1209;98948;-66
2023/11/05 03:17:17;;;;;;;;;;;;;;;7.36;100.00;97593.83;111406;1208;98875;-66
2023/11/05 03:19:42;;;;;;;;;;;;;;;7.37;100.00;97588.98;111381;1208;124889;-66
2023/11/05 03:22:07;;;;;;;;;;;;;;;7.39;100.00;97581.01;111449;1212;99073;-69
2023/11/05 03:24:32;;;;;;;;;;;;;;;7.40;100.00;97576.30;111329;1211;125074;-66
2023/11/05 03:26:57;;;;;;;;;;;;;;;7.42;100.00;97578.63;111517;1212;112473;-66
2023/11/05 03:29:23;;;;;;;;;;;;;;;7.45;100.00;97588.16;111450;1208;99048;-67
2023/11/05 03:31:49;;;;;;;;;;;;;;;7.47;100.00;97585.51;111422;1208;126171;-66
2023/11/05 03:34:14;;;;;;;;;;;;;;;7.49;100.00;97586.91;111468;1209;97886;-66
2023/11/05 03:36:39;;;;;;;;;;;;;;;7.52;100.00;97575.50;111340;1208;125136;-69
2023/11/05 03:39:05;;;;;;;;;;;;;;;7.55;100.00;97577.02;111544;1209;99162;-69
2023/11/05 03:41:30;;;;;;;;;;;;;;;7.57;100.00;97565.30;111356;1208;98971;-69
2023/11/05 03:43:55;;;;;;;;;;;;;;;7.60;100.00;97565.08;111446;1208;126277;-69
2023/11/05 03:46:20;;;;;;;;;;;;;;;7.62;100.00;97562.29;111351;1212;98960;-66
2023/11/05 03:48:45;;;;;;;;;;;;;;;7.63;100.00;97568.39;111359;1210;125481;-66
2023/11/05 03:51:14;;;;;;;;;;;;;;;7.65;100.00;97567.52;111439;1217;98907;-66
2023/11/05 03:53:39;;;;;;;;;;;;;;;7.66;100.00;97564.42;111375;1212;112383;-66
2023/11/05 03:56:04;;;;;;;;;;;;;;;7.68;100.00;97568.53;111272;1208;125836;-67
2023/11/05 03:58:30;;;;;;;;;;;;;;;7.70;100.00;97576.71;111443;1208;99012;-66
2023/11/05 04:00:55;;;;;;;;;;;;;;;7.71;100.00;97577.35;111301;1212;126286;-69
2023/11/05 04:03:20;;;;;;;;;;;;;;;7.72;100.00;97583.30;111407;1208;98959;-69
2023/11/05 04:05:46;;;;;;;;;;;;;;;7.73;100.00;97585.30;111366;1208;99230;-69
2023/11/05 04:08:11;;;;;;;;;;;;;;;7.75;100.00;97581.96;111362;1212;124881;-69
2023/11/05 04:10:36;;;;;;;;;;;;;;;7.77;100.00;97564.92;111401;1212;112370;-69
2023/11/05 04:13:01;;;;;;;;;;;;;;;7.77;100.00;97551.23;111382;1209;125220;-69
2023/11/05 04:15:27;;;;;;;;;;;;;;;7.78;100.00;97540.30;111489;1212;99052;-69
2023/11/05 04:17:52;;;;;;;;;;;;;;;7.79;100.00;97541.98;111459;1213;98917;-69
2023/11/05 04:20:17;;;;;;;;;;;;;;;7.79;100.00;97544.69;111403;1210;124684;-69
2023/11/05 04:22:45;;;;;;;;;;;;;;;7.80;100.00;97544.36;111448;1209;99056;-69
2023/11/05 04:25:10;;;;;;;;;;;;;;;7.81;100.00;97541.62;111377;1210;125184;-69
2023/11/05 04:27:35;;;;;;;;;;;;;;;7.85;100.00;97543.50;111464;1213;98946;-69
2023/11/05 04:30:00;;;;;;;;;;;;;;;7.87;100.00;97556.13;111376;1223;125661;-69
2023/11/05 04:32:25;;;;;;;;;;;;;;;7.88;100.00;97569.70;111416;1209;98936;-69
2023/11/05 04:34:50;;;;;;;;;;;;;;;7.89;100.00;97574.40;111531;1212;98949;-66
2023/11/05 04:37:16;;;;;;;;;;;;;;;7.90;100.00;97571.66;111267;1212;125777;-69
2023/11/05 04:39:42;;;;;;;;;;;;;;;7.92;100.00;97570.48;111468;1208;98962;-69
2023/11/05 04:42:09;;;;;;;;;;;;;;;7.92;100.00;97570.98;111314;1210;125606;-69
2023/11/05 04:44:36;;;;;;;;;;;;;;;7.94;100.00;97576.52;111419;1209;98938;-69
2023/11/05 04:47:01;;;;;;;;;;;;;;;7.95;100.00;97579.67;111420;1212;99070;-69
2023/11/05 04:49:27;;;;;;;;;;;;;;;7.95;100.00;97580.30;111366;1212;126854;-69
2023/11/05 04:51:52;;;;;;;;;;;;;;;7.95;100.00;97585.46;111370;1223;99017;-69
2023/11/05 04:54:17;;;;;;;;;;;;;;;7.96;100.00;97590.73;111328;1212;126538;-69
2023/11/05 04:56:43;;;;;;;;;;;;;;;7.98;99.95;97597.34;111533;1212;98984;-69
2023/11/05 04:59:08;;;;;;;;;;;;;;;7.99;99.93;97586.05;111417;1209;98089;-69
2023/11/05 05:01:33;;;;;;;;;;;;;;;8.00;99.82;97578.12;111341;1208;125263;-67
2023/11/05 05:03:59;;;;;;;;;;;;;;;8.01;99.69;97572.55;111447;1208;99063;-67
2023/11/05 05:06:25;;;;;;;;;;;;;;;8.02;99.76;97578.33;111331;1212;125452;-67
2023/11/05 05:08:50;;;;;;;;;;;;;;;8.03;99.65;97579.16;111513;1208;98951;-67
2023/11/05 05:11:15;;;;;;;;;;;;;;;8.03;99.65;97572.73;111469;1211;98934;-67
2023/11/05 05:13:41;;;;;;;;;;;;;;;8.03;99.62;97563.11;111419;1208;126004;-67
2023/11/05 05:16:08;;;;;;;;;;;;;;;8.03;99.48;97554.75;111434;1210;99012;-67
2023/11/05 05:18:33;;;;;;;;;;;;;;;8.02;99.40;97550.72;111327;1212;126268;-67
2023/11/05 05:20:59;;;;;;;;;;;;;;;8.03;99.32;97556.25;111461;1208;99285;-67
2023/11/05 05:23:24;;;;;;;;;;;;;;;8.01;99.22;97561.49;111445;1211;99055;-67
2023/11/05 05:25:49;;;;;;;;;;;;;;;7.99;99.15;97558.80;111359;1208;125056;-67
2023/11/05 05:28:14;;;;;;;;;;;;;;;7.96;98.91;97555.68;111481;1208;98647;-67
2023/11/05 05:30:39;;;;;;;;;;;;;;;7.95;98.88;97560.81;111334;1212;125711;-67
2023/11/05 05:33:05;;;;;;;;;;;;;;;7.94;98.81;97563.70;111520;1208;99041;-67
2023/11/05 05:35:30;;;;;;;;;;;;;;;7.94;98.83;97564.95;111378;1212;99123;-67
2023/11/05 05:37:56;;;;;;;;;;;;;;;7.94;98.79;97563.94;111322;1212;124871;-67
2023/11/05 05:40:21;;;;;;;;;;;;;;;7.93;98.67;97567.67;111533;1209;98952;-67
2023/11/05 05:42:46;;;;;;;;;;;;;;;7.94;98.70;97564.59;111292;1210;126660;-67
2023/11/05 05:45:12;;;;;;;;;;;;;;;7.95;98.60;97560.64;111515;1211;99084;-67
2023/11/05 05:47:37;;;;;;;;;;;;;;;7.95;98.54;97563.96;111426;1212;98946;-66
2023/11/05 05:50:03;;;;;;;;;;;;;;;7.95;98.49;97561.34;111400;1209;124645;-67
2023/11/05 05:52:28;;;;;;;;;;;;;;;7.93;98.40;97554.05;111383;1210;99101;-67
2023/11/05 05:54:53;;;;;;;;;;;;;;;7.89;98.37;97547.81;111315;1212;125325;-66
2023/11/05 05:57:18;;;;;;;;;;;;;;;7.86;98.42;97539.82;111533;1212;99056;-66
2023/11/05 05:59:43;;;;;;;;;;;;;;;7.84;98.41;97537.66;111428;1208;99052;-67
2023/11/05 06:02:09;;;;;;;;;;;;;;;7.81;98.29;97531.49;111305;1209;126081;-66
2023/11/05 06:04:35;;;;;;;;;;;;;;;7.80;98.29;97535.36;111433;1209;99060;-67
2023/11/05 06:07:00;;;;;;;;;;;;;;;7.77;98.35;97534.34;111382;1212;125511;-66
2023/11/05 06:09:25;;;;;;;;;;;;;;;7.74;98.27;97530.66;111503;1212;102241;-66
2023/11/05 06:11:50;;;;;;;;;;;;;;;7.72;98.28;97526.59;111492;1208;99044;-67
2023/11/05 06:14:16;;;;;;;;;;;;;;;7.70;98.21;97524.13;111451;1212;127069;-66
2023/11/05 06:16:41;;;;;;;;;;;;;;;7.66;98.20;97527.80;111428;1213;99090;-66
2023/11/05 06:19:06;;;;;;;;;;;;;;;7.64;98.25;97530.13;111356;1208;125426;-68
2023/11/05 06:21:31;;;;;;;;;;;;;;;7.61;98.25;97521.48;111441;1209;112505;-67
2023/11/05 06:23:57;;;;;;;;;;;;;;;7.59;98.27;97516.30;111438;1212;99177;-67
2023/11/05 06:26:24;;;;;;;;;;;;;;;7.58;98.30;97516.19;111363;1213;124834;-68
2023/11/05 06:28:49;;;;;;;;;;;;;;;7.58;98.26;97524.42;111426;1208;99073;-68
2023/11/05 06:31:16;;;;;;;;;;;;;;;7.56;98.34;97515.34;111285;1213;124975;-68
2023/11/05 06:33:41;;;;;;;;;;;;;;;7.56;98.31;97506.11;111399;1209;100891;-68
2023/11/05 06:36:06;;;;;;;;;;;;;;;7.54;98.37;97500.88;111350;1212;125280;-68
2023/11/05 06:38:31;;;;;;;;;;;;;;;7.52;98.29;97500.52;111425;1212;98939;-68
2023/11/05 06:40:57;;;;;;;;;;;;;;;7.52;98.49;97506.75;111515;1209;99049;-67
2023/11/05 06:43:22;;;;;;;;;;;;;;;7.52;98.52;97508.69;111323;1208;124745;-68
2023/11/05 06:45:47;;;;;;;;;;;;;;;7.52;98.45;97512.08;111532;1208;98988;-69
2023/11/05 06:48:12;;;;;;;;;;;;;;;7.52;98.56;97511.34;111372;1208;124892;-67
2023/11/05 06:50:37;;;;;;;;;;;;;;;7.54;98.57;97514.81;111437;1214;99112;-66
2023/11/05 06:53:03;;;;;;;;;;;;;;;7.56;98.74;97511.22;111386;1208;99070;-67
2023/11/05 06:55:28;;;;;;;;;;;;;;;7.60;98.80;97513.92;111381;1208;125151;-67
2023/11/05 06:57:53;;;;;;;;;;;;;;;7.64;98.86;97512.30;111524;1212;98952;-67
2023/11/05 07:00:20;;;;;;;;;;;;;;;7.68;98.90;97508.14;111342;1209;124898;-68
2023/11/05 07:02:46;;;;;;;;;;;;;;;7.72;98.94;97507.06;111382;1213;98914;-68
2023/11/05 07:05:11;;;;;;;;;;;;;;;7.74;98.94;97506.35;111690;1208;98967;-68
2023/11/05 07:07:37;;;;;;;;;;;;;;;7.77;99.00;97505.74;111454;1212;124872;-67
2023/11/05 07:10:04;;;;;;;;;;;;;;;7.82;99.15;97513.70;111591;1212;100035;-68
2023/11/05 07:12:30;;;;;;;;;;;;;;;7.86;99.17;97513.15;111412;1212;126243;-68
2023/11/05 07:14:55;;;;;;;;;;;;;;;7.90;99.25;97514.76;111567;1208;99073;-68
2023/11/05 07:17:20;;;;;;;;;;;;;;;7.94;99.33;97516.76;111607;1209;98958;-67
2023/11/05 07:19:46;;;;;;;;;;;;;;;7.98;99.39;97517.30;111295;1208;125335;-70
2023/11/05 07:22:12;;;;;;;;;;;;;;;8.02;99.43;97517.73;110835;1209;98839;-71
2023/11/05 07:24:37;;;;;;;;;;;;;;;8.06;99.38;97516.11;110720;1212;125802;-72
2023/11/05 07:27:02;;;;;;;;;;;;;;;8.11;99.50;97517.33;110725;1210;98940;-71
2023/11/05 07:29:28;;;;;;;;;;;;;;;8.17;99.51;97513.98;110806;1212;99056;-72
2023/11/05 07:31:53;;;;;;;;;;;;;;;8.21;99.46;97513.43;110718;1212;124726;-72
2023/11/05 07:34:18;;;;;;;;;;;;;;;8.27;99.53;97516.48;110852;1213;98862;-71
2023/11/05 07:36:44;;;;;;;;;;;;;;;8.32;99.57;97518.36;110708;1208;126124;-72
2023/11/05 07:39:12;;;;;;;;;;;;;;;8.37;99.46;97516.17;110804;1208;98942;-71
2023/11/05 07:41:37;;;;;;;;;;;;;;;8.42;99.54;97518.45;111375;1212;99129;-67
2023/11/05 07:44:03;;;;;;;;;;;;;;;8.45;99.48;97523.14;111501;1212;125280;-68
2023/11/05 07:46:28;;;;;;;;;;;;;;;8.51;99.49;97520.20;111503;1212;99072;-68
2023/11/05 07:48:53;;;;;;;;;;;;;;;8.56;99.52;97519.78;111562;1209;124887;-68
2023/11/05 07:51:21;;;;;;;;;;;;;;;8.60;99.46;97514.61;111651;1212;98890;-69
2023/11/05 07:53:47;;;;;;;;;;;;;;;8.63;99.46;97513.85;111555;1212;107619;-67
2023/11/05 07:56:14;;;;;;;;;;;;;;;8.66;99.39;97514.23;111384;1209;125042;-68
2023/11/05 07:58:40;;;;;;;;;;;;;;;8.71;99.39;97515.11;111562;1208;98955;-67
2023/11/05 08:01:08;;;;;;;;;;;;;;;8.72;99.32;97506.06;111461;1212;125354;-68
2023/11/05 08:03:33;;;;;;;;;;;;;;;8.75;99.26;97505.49;111381;1209;108619;-68
2023/11/05 08:05:58;;;;;;;;;;;;;;;8.75;99.26;97513.98;111378;1212;125247;-71
2023/11/05 08:08:23;;;;;;;;;;;;;;;8.75;99.12;97513.98;111593;1214;99059;-68
2023/11/05 08:10:49;;;;;;;;;;;;;;;8.77;99.28;97512.98;111644;1211;98954;-68
2023/11/05 08:13:14;;;;;;;;;;;;;;;8.78;99.22;97508.60;111530;1213;126309;-68
2023/11/05 08:15:39;;;;;;;;;;;;;;;8.80;99.17;97510.94;111576;1208;101310;-66
2023/11/05 08:18:05;;;;;;;;;;;;;;;8.84;99.13;97509.89;111485;1208;125252;-67
2023/11/05 08:20:31;;;;;;;;;;;;;;;8.89;99.15;97508.43;111540;1208;98902;-67
2023/11/05 08:22:58;;;;;;;;;;;;;;;8.92;99.05;97500.84;111500;1209;98982;-67
2023/11/05 08:25:23;;;;;;;;;;;;;;;8.95;98.87;97506.59;111323;1212;126365;-67
2023/11/05 08:27:49;;;;;;;;;;;;;;;8.99;98.78;97508.06;111557;1212;99038;-67
2023/11/05 08:30:15;;;;;;;;;;;;;;;9.04;98.72;97499.79;111285;1211;126099;-67
2023/11/05 08:32:42;;;;;;;;;;;;;;;9.08;98.70;97492.80;111428;1212;98952;-67
2023/11/05 08:35:08;;;;;;;;;;;;;;;9.13;98.60;97495.59;111475;1212;98945;-69
2023/11/05 08:37:34;;;;;;;;;;;;;;;9.19;98.68;97495.39;111385;1212;126470;-68
2023/11/05 08:40:00;;;;;;;;;;;;;;;9.28;98.74;97499.45;111336;1208;107435;-69
2023/11/05 08:42:25;;;;;;;;;;;;;;;9.34;98.72;97502.48;111317;1209;126303;-70
2023/11/05 08:44:50;;;;;;;;;;;;;;;9.40;98.64;97505.65;111556;1214;98968;-67
2023/11/05 08:47:15;;;;;;;;;;;;;;;9.45;98.55;97505.39;111113;1210;98959;-67
2023/11/05 08:49:40;;;;;;;;;;;;;;;9.51;98.62;97501.71;111404;1213;124681;-67
2023/11/05 08:52:06;;;;;;;;;;;;;;;9.56;98.46;97502.29;111559;1212;99032;-67
2023/11/05 08:54:34;;;;;;;;;;;;;;;9.62;98.41;97501.97;111433;1209;124980;-68
2023/11/05 08:57:00;;;;;;;;;;;;;;;9.66;98.19;97503.21;111377;1213;107378;-68
2023/11/05 08:59:28;;;;;;;;;;;;;;;9.69;98.07;97501.27;111415;1211;99026;-68
2023/11/05 09:01:53;;;;;;;;;;;;;;;9.74;97.98;97502.61;111424;1210;124758;-68
2023/11/05 09:04:18;;;;;;;;;;;;;;;9.80;97.97;97492.83;111460;1213;99754;-68
2023/11/05 09:06:44;;;;;;;;;;;;;;;9.85;98.04;97490.05;111271;1212;125400;-67
2023/11/05 09:09:11;;;;;;;;;;;;;;;9.91;97.75;97485.58;111365;1208;99154;-67
2023/11/05 09:11:37;;;;;;;;;;;;;;;9.94;97.84;97489.19;111427;1208;98946;-68
2023/11/05 09:14:03;;;;;;;;;;;;;;;9.97;97.75;97483.44;111410;1208;124858;-67
2023/11/05 09:16:28;;;;;;;;;;;;;;;9.97;97.48;97485.33;111448;1210;99000;-70
2023/11/05 09:18:53;;;;;;;;;;;;;;;9.99;97.34;97482.45;111271;1209;124733;-69
2023/11/05 09:21:18;;;;;;;;;;;;;;;10.02;97.04;97486.99;111424;1212;99014;-67
2023/11/05 09:23:43;;;;;;;;;;;;;;;10.09;97.09;97487.50;111480;1209;98997;-69
2023/11/05 09:26:08;;;;;;;;;;;;;;;10.14;96.91;97482.58;111273;1214;125027;-69
2023/11/05 09:28:33;;;;;;;;;;;;;;;10.19;96.84;97482.14;111428;1213;98718;-69
2023/11/05 09:30:59;;;;;;;;;;;;;;;10.23;96.71;97484.94;111265;1208;124974;-69
2023/11/05 09:33:25;;;;;;;;;;;;;;;10.29;96.62;97481.92;111387;1208;98940;-69
2023/11/05 09:35:53;;;;;;;;;;;;;;;10.35;96.69;97471.69;111482;1214;97851;-69
2023/11/05 09:38:18;;;;;;;;;;;;;;;10.41;96.49;97470.24;111337;1213;125159;-69
2023/11/05 09:40:44;;;;;;;;;;;;;;;10.46;96.55;97463.84;111409;1208;98957;-69
2023/11/05 09:43:10;;;;;;;;;;;;;;;10.49;96.55;97460.40;111205;1210;124881;-67
2023/11/05 09:45:36;;;;;;;;;;;;;;;10.49;96.53;97458.56;111295;1208;100513;-68
2023/11/05 09:48:08;;;;;;;;;;;;;;;10.52;96.25;97456.20;111325;1213;125207;-68
2023/11/05 09:50:37;;;;;;;;;;;;;;;10.58;96.37;97456.32;111377;1212;99663;-68
2023/11/05 09:53:06;;;;;;;;;;;;;;;10.63;96.35;97456.02;111425;1208;107334;-69
2023/11/05 09:55:33;;;;;;;;;;;;;;;10.67;96.29;97454.95;111278;1214;125041;-69
2023/11/05 09:58:00;;;;;;;;;;;;;;;10.71;96.31;97450.42;111447;1214;98950;-68
2023/11/05 10:00:25;;;;;;;;;;;;;;;10.79;96.29;97442.90;111168;1214;126217;-69
2023/11/05 10:02:58;;;;;;;;;;;;;;;10.90;96.37;97437.39;111442;1212;99075;-68
2023/11/05 10:05:24;;;;;;;;;;;;;;;10.99;96.28;97432.17;111234;1212;98936;-68
2023/11/05 10:07:51;;;;;;;;;;;;;;;11.06;96.21;97436.52;111322;1208;124947;-69
2023/11/05 10:10:16;;;;;;;;;;;;;;;11.14;96.01;97433.11;111340;1208;98995;-68
2023/11/05 10:12:41;;;;;;;;;;;;;;;11.19;96.06;97434.76;111282;1211;126484;-68
2023/11/05 10:15:07;;;;;;;;;;;;;;;11.25;95.79;97435.71;111414;1212;97778;-69
2023/11/05 10:17:33;;;;;;;;;;;;;;;11.31;95.78;97432.46;111423;1214;101940;-68
2023/11/05 10:19:58;;;;;;;;;;;;;;;11.34;95.56;97431.60;111414;1214;125619;-68
2023/11/05 10:22:24;;;;;;;;;;;;;;;11.42;95.47;97428.04;111384;1213;99047;-68
2023/11/05 10:24:51;;;;;;;;;;;;;;;11.51;95.12;97425.73;111400;1208;125538;-68
2023/11/05 10:27:30;;;;;;;;;;;;;;;11.57;95.29;97428.00;111349;1222;112393;-68
2023/11/05 10:29:56;;;;;;;;;;;;;;;11.62;95.25;97432.59;111389;1214;99516;-68
2023/11/05 10:32:22;;;;;;;;;;;;;;;11.69;95.34;97426.19;111247;1212;124864;-68
2023/11/05 10:34:49;;;;;;;;;;;;;;;11.76;95.25;97425.73;111477;1212;98981;-68
2023/11/05 10:37:15;;;;;;;;;;;;;;;11.81;95.14;97418.26;111346;1212;124837;-67
2023/11/05 10:39:40;;;;;;;;;;;;;;;11.87;95.13;97411.06;111426;1212;101927;-67
2023/11/05 10:42:07;;;;;;;;;;;;;;;11.91;94.94;97409.70;111358;1213;125837;-67
2023/11/05 10:44:33;;;;;;;;;;;;;;;11.99;95.08;97412.48;111286;1212;99047;-67
2023/11/05 10:46:59;;;;;;;;;;;;;;;12.04;94.92;97406.48;111404;1214;99031;-68
2023/11/05 10:49:24;;;;;;;;;;;;;;;12.08;94.77;97406.66;111359;1213;125578;-69
2023/11/05 10:51:50;;;;;;;;;;;;;;;12.15;94.67;97400.85;111380;1208;99073;-69
2023/11/05 10:54:16;;;;;;;;;;;;;;;12.24;94.67;97396.86;111288;1212;125256;-69
2023/11/05 10:56:43;;;;;;;;;;;;;;;12.30;94.40;97393.11;111437;1212;99121;-69
2023/11/05 10:59:09;;;;;;;;;;;;;;;12.35;94.32;97391.87;111338;1213;107482;-68
2023/11/05 11:01:35;;;;;;;;;;;;;;;12.38;93.86;97391.59;111303;1222;125833;-69
2023/11/05 11:04:09;;;;;;;;;;;;;;;12.39;93.84;97393.89;111414;1211;98938;-68
2023/11/05 11:06:36;;;;;;;;;;;;;;;12.41;93.68;97393.33;111201;1214;126443;-69
2023/11/05 11:09:29;;;;;;;;;;;;;;;12.43;93.38;97391.80;111416;1208;99071;-69
2023/11/05 11:11:55;;;;;;;;;;;;;;;12.48;93.21;97386.09;111369;1214;107448;-69
2023/11/05 11:14:24;;;;;;;;;;;;;;;12.52;92.85;97387.16;111310;1214;125705;-69
2023/11/05 11:16:49;;;;;;;;;;;;;;;12.63;93.01;97388.00;111474;1211;99030;-69
2023/11/05 11:19:16;;;;;;;;;;;;;;;12.69;92.86;97385.11;111318;1209;125489;-68
2023/11/05 11:21:43;;;;;;;;;;;;;;;12.75;92.84;97383.63;111368;1208;107547;-69
2023/11/05 11:24:27;;;;;;;;;;;;;;;12.76;92.64;97384.21;111453;1212;125256;-69
2023/11/05 11:26:53;;;;;;;;;;;;;;;12.73;92.35;97383.61;111429;1212;99127;-69
2023/11/05 11:29:19;;;;;;;;;;;;;;;12.75;92.35;97386.69;111384;1214;98720;-69
2023/11/05 11:31:44;;;;;;;;;;;;;;;12.77;92.24;97388.38;111319;1213;125432;-69
2023/11/05 11:34:10;;;;;;;;;;;;;;;12.80;92.09;97388.94;111307;1209;98981;-70
2023/11/05 11:36:35;;;;;;;;;;;;;;;12.81;91.86;97380.44;111231;1214;125214;-70
2023/11/05 11:39:00;;;;;;;;;;;;;;;12.78;91.43;97380.05;111487;1210;98971;-70
2023/11/05 11:41:32;;;;;;;;;;;;;;;12.69;90.80;97382.05;111459;1212;99014;-67
2023/11/05 11:43:58;;;;;;;;;;;;;;;12.69;91.07;97382.59;110890;1214;125109;-67
2023/11/05 11:46:23;;;;;;;;;;;;;;;12.75;90.93;97386.09;110954;1227;98977;-70
2023/11/05 11:48:48;;;;;;;;;;;;;;;12.79;91.06;97385.98;111414;1212;126173;-68
2023/11/05 11:51:14;;;;;;;;;;;;;;;12.83;90.86;97389.02;111231;1214;99099;-68
2023/11/05 11:53:40;;;;;;;;;;;;;;;12.91;90.92;97385.80;110931;1214;98997;-68
2023/11/05 11:56:06;;;;;;;;;;;;;;;12.96;90.84;97376.33;110860;1213;125547;-68
2023/11/05 11:58:35;;;;;;;;;;;;;;;13.03;90.92;97376.85;111030;1208;100257;-68
2023/11/05 12:01:00;;;;;;;;;;;;;;;13.06;90.79;97373.42;110772;1213;125651;-68
2023/11/05 12:03:29;;;;;;;;;;;;;;;13.08;90.76;97374.89;110944;1214;99534;-67
2023/11/05 12:05:54;;;;;;;;;;;;;;;13.07;90.67;97379.63;110977;1212;98949;-68
2023/11/05 12:08:36;;;;;;;;;;;;;;;13.02;90.33;97386.44;110870;1212;125083;-68
2023/11/05 12:11:03;;;;;;;;;;;;;;;12.95;90.06;97388.81;111000;1212;108141;-68
2023/11/05 12:13:31;;;;;;;;;;;;;;;12.94;89.99;97392.90;110809;1214;125718;-68
2023/11/05 12:15:57;;;;;;;;;;;;;;;12.92;89.70;97388.23;111420;1209;98994;-68
2023/11/05 12:18:22;;;;;;;;;;;;;;;12.92;89.75;97385.73;111254;1212;125462;-68
2023/11/05 12:20:47;;;;;;;;;;;;;;;12.94;89.75;97385.55;111365;1213;99066;-68
2023/11/05 12:23:12;;;;;;;;;;;;;;;12.93;89.58;97381.51;111376;1209;98993;-68
2023/11/05 12:25:37;;;;;;;;;;;;;;;12.91;89.57;97376.83;111384;1212;124910;-68
2023/11/05 12:28:03;;;;;;;;;;;;;;;12.93;89.47;97376.58;111428;1212;99034;-68